createdAt,value
2022-08-18T00:06:06.107Z,34.0395
2022-08-18T00:21:08.072Z,34.3967
2022-08-18T00:36:09.968Z,31.3677
2022-08-18T00:51:11.964Z,32.6906
2022-08-18T01:06:13.955Z,31.6178
2022-08-18T01:21:15.912Z,33.2756
2022-08-18T01:36:17.869Z,33.8866
2022-08-18T01:51:20.406Z,31.9855
2022-08-18T02:06:40.241Z,33.7925
2022-08-18T02:21:48.397Z,32.2938
2022-08-18T02:36:50.328Z,32.6256
2022-08-18T02:51:52.267Z,33.4056
2022-08-18T03:06:54.177Z,31.6568
2022-08-18T03:21:57.303Z,31.7125
2022-08-18T03:37:00.184Z,32.0536
2022-08-18T03:52:02.140Z,31.0297
2022-08-18T04:07:04.069Z,31.0916
2022-08-18T04:22:05.978Z,31.3807
2022-08-18T04:37:07.851Z,30.6174
2022-08-18T04:52:37.404Z,30.8285
2022-08-18T05:07:43.388Z,31.0235
2022-08-18T05:22:45.306Z,29.9705
2022-08-18T05:37:47.496Z,29.4307
2022-08-18T05:52:49.503Z,29.4567
2022-08-18T06:07:51.527Z,29.466
2022-08-18T06:22:55.311Z,30.9127
2022-08-18T06:37:58.211Z,29.076
2022-08-18T06:53:00.133Z,28.3288
2022-08-18T07:08:02.031Z,30.5091
2022-08-18T07:23:08.320Z,29.0401
2022-08-18T07:38:40.955Z,29.726
2022-08-18T07:53:44.313Z,29.635
2022-08-18T08:08:56.734Z,30.116
2022-08-18T08:23:59.095Z,28.4811
2022-08-18T08:39:01.283Z,28.2341
2022-08-18T08:54:03.169Z,26.411
2022-08-18T09:09:05.045Z,27.334
2022-08-18T09:24:06.935Z,27.7692
2022-08-18T09:39:08.862Z,28.5554
2022-08-18T09:54:10.779Z,27.1941
2022-08-18T10:09:14.712Z,27.1254
2022-08-18T10:24:36.139Z,27.2195
2022-08-18T13:19:52.710Z,24.4889
2022-08-18T13:34:57.578Z,25.467
2022-08-18T13:50:00.393Z,25.4348
2022-08-18T14:05:02.249Z,24.6548
2022-08-18T14:20:05.274Z,27.0858
2022-08-18T14:35:21.807Z,28.2428
2022-08-18T14:50:36.086Z,29.1658
2022-08-18T15:05:38.906Z,29.0655
2022-08-18T15:20:44.240Z,29.7217
2022-08-18T15:35:46.056Z,29.9495
2022-08-18T15:50:50.895Z,30.2256
2022-08-18T16:05:53.325Z,29.9501
2022-08-18T16:20:56.774Z,30.3333
2022-08-18T16:35:58.784Z,30.5642
2022-08-18T16:51:00.619Z,30.8335
2022-08-18T17:06:02.436Z,30.1903
2022-08-18T17:21:04.244Z,31.1653
2022-08-18T17:36:06.097Z,31.0093
2022-08-18T17:51:07.955Z,31.2532
2022-08-18T18:06:09.818Z,31.767
2022-08-18T18:21:11.669Z,31.7899
2022-08-18T18:36:13.483Z,32.196
2022-08-18T18:51:15.324Z,32.404
2022-08-18T19:06:35.176Z,32.807
2022-08-18T19:22:05.935Z,32.6188
2022-08-18T19:37:08.402Z,32.8169
2022-08-18T19:52:46.486Z,32.9859
2022-08-18T20:07:52.028Z,33.0026
2022-08-18T20:22:57.552Z,33.3375
2022-08-18T20:37:59.498Z,33.4607
2022-08-18T20:53:01.309Z,33.1685
2022-08-18T21:08:03.909Z,33.7535
2022-08-18T21:23:05.745Z,34.7644
2022-08-18T21:38:07.561Z,35.5215
2022-08-18T21:53:10.593Z,35.4701
2022-08-18T22:08:12.397Z,36.5522
2022-08-18T22:23:14.252Z,36.7701
2022-08-18T22:38:16.102Z,37.3161
2022-08-18T22:53:17.908Z,37.378
2022-08-18T23:08:20.961Z,34.8269
2022-08-18T23:23:40.102Z,33.9918
2022-08-18T23:38:41.931Z,34.154
2022-08-18T23:53:43.781Z,35.8737
